Redwood City, CA

5:17 AM PDT on October 01, 2014 (GMT -0700)
San Carlos | Change Station
CLOSE
Current Station
Airport
Location: San Carlos,
Elevation: 3 ft
Nearby Weather Stations

Elev 3 ft 37.51 °N, 122.25 °W | Updated 22 minutes ago

Partly Cloudy
Partly Cloudy
59 °F
Feels Like 59 °F
N
0
Wind Variable Wind from North

Today
High -- | Low -- °F
--% Chance of Precip.
Yesterday
High -- | Low -- °F
Precip. -- in
7:04 AM 6:51 PM
Waxing Crescent, 47% visible
Pressure 29.87 in
Visibility 10.0 miles
Clouds Scattered Clouds 300 ft
Dew Point 54 °F
Humidity 82%
Rainfall 0.00 in
Snow Depth 1 in , 0 in , 0 in
UV 0 out of 12
Pollen 3.60 out of 12
Ozone Good
PM2.5 Good
Flu Activity Not available.
METAR KSQL 011155Z AUTO 00000KT 10SM SCT003 15/12 A2987 RMK AO2

More Conditions Fewer Conditions

Pressure 29.87 in
Visibility 10.0 miles
Clouds Scattered Clouds 300 ft
Dew Point 54 °F
Humidity 82%
Rainfall 0.00 in
Snow Depth 1 in , 0 in , 0 in
UV 0 out of 12
Pollen 3.60 out of 12
Ozone Good
PM2.5 Good
Flu Activity Not available.
METAR KSQL 011155Z AUTO 00000KT 10SM SCT003 15/12 A2987 RMK AO2

More Conditions Fewer Conditions

10-Day Weather Forecast

Almanac

Astronomy

Oct. 01, 2014 Rise Set
Actual Time 7:04 AM PDT 6:51 PM PDT
Civil Twilight 6:38 AM PDT 7:18 PM PDT
Nautical Twilight 6:08 AM PDT 7:48 PM PDT
Astronomical Twilight 5:37 AM PDT 8:18 PM PDT
Moon 2:05 PM PDT No Moon Set
Length of Visible Light 12h 39m
Length of Day
11h 47m
Tomorrow will be 2m 23s shorter.
Waxing Crescent, 47% of the Moon is Illuminated
Today
Waxing Crescent
Oct 1
First Quarter
Oct 8
Full
Oct 15
Last Quarter
Oct 23
New

Today's Extremes

State Highs State Lows

Community

WunderPhotos

Upload Photos

1,757,914 photos uploaded!

Nearby

Air Quality

  Air Quality AQ Index Pollutant
Yesterday Good
PM2.5
Yesterday Good
OZONE
Current Good
PM2.5
Current Good
OZONE
Wednesday Good
PM2.5
Thursday Moderate
PM2.5
Friday Moderate
PM2.5
Saturday Moderate
PM2.5
Sunday Moderate
PM2.5

Snow Depth

Station Depth Elevation
Spratt Creek 1 in 6200 ft
Independence Camp 0 in 7000 ft
Sonora Pass 0 in 8800 ft
Squaw Valley 0 in 8200 ft
Heavenly Valley 0 in 8850 ft

Earthquake Activity

City Distance Mag. Time & Date
Shandon, California 159 miles 2.9 5:34 PM PDT
2014-09-30
East Foothills, California 25 miles 2.6 3:34 PM PDT
2014-09-30
South Dos Palos, California 98 miles 2.7 3:08 PM PDT
2014-09-30
South Dos Palos, California 98 miles 2.5 9:18 PM PDT
2014-09-29
Minimum magnitude displayed is 2.5.

Coastal Water Temperatures

Place Temperature
No Stations Reporting

Nearby Weather Stations